Ust'- Njukzha, Russia
Current Conditions -  °F | °C
As of 11:00 PM on Saturday 25 Oct 2014 (Local Time) from UIAA Reporting Station
Clear Clear  
Wind Chill:   Ceiling: Unl
Heat Index: 19°   Visibility: 6mi
Dew Point: -4°   Wind: 9mph
Humidity: 36%   Direction: 340°NNW
Pressure: 30.33"   Gusts: NA
Location:  56.58°N, 121.48°E
Report Text: UIAA 251400Z 34004MPS 9999 SKC M07/M20 Q1027 NOSIG RMK QFE71129CLRD70
Loading
Personal Weather Stations






























Interactive Weather Map
Tropical Storm Tracking
New forecast layout! Learn more

10-Day Weather Forecast

Advertisements
Track Severe Weather on mobile